createdAt,value
2018-11-10T00:00:19.344Z,98798.00
2018-11-10T00:02:49.396Z,98791.00
2018-11-10T00:05:19.439Z,98784.00
2018-11-10T00:07:48.558Z,98776.00
2018-11-10T00:10:18.374Z,98775.00
2018-11-10T00:12:48.140Z,98777.00
2018-11-10T00:15:17.381Z,98772.00
2018-11-10T00:17:46.572Z,98768.00
2018-11-10T00:20:15.589Z,98776.00
2018-11-10T00:22:45.319Z,98770.00
2018-11-10T00:25:15.060Z,98769.00
2018-11-10T00:27:45.758Z,98764.00
2018-11-10T00:30:21.703Z,98763.00
2018-11-10T00:32:51.268Z,98757.00
2018-11-10T00:35:20.842Z,98755.00
2018-11-10T00:37:50.162Z,98751.00
2018-11-10T00:40:19.457Z,98748.00
2018-11-10T00:42:48.968Z,98754.00
2018-11-10T00:45:18.280Z,98754.00
2018-11-10T00:47:47.658Z,98748.00
2018-11-10T00:50:16.747Z,98744.00
2018-11-10T00:52:45.807Z,98731.00
2018-11-10T00:55:15.843Z,98730.00
2018-11-10T00:57:44.899Z,98727.00
2018-11-10T01:00:14.323Z,98717.00
2018-11-10T01:02:44.322Z,98712.00
2018-11-10T01:05:13.374Z,98704.00
2018-11-10T01:07:42.648Z,98695.00
2018-11-10T01:10:13.045Z,98698.00
2018-11-10T01:12:42.458Z,98704.00
2018-11-10T01:15:13.270Z,98705.00
2018-11-10T01:17:43.039Z,98709.00
2018-11-10T01:20:12.913Z,98703.00
2018-11-10T01:22:41.952Z,98706.00
2018-11-10T01:25:11.676Z,98708.00
2018-11-10T01:27:40.832Z,98698.00
2018-11-10T01:30:13.445Z,98699.00
2018-11-10T01:32:43.320Z,98702.00
2018-11-10T01:35:12.505Z,98691.00
2018-11-10T01:37:41.580Z,98687.00
2018-11-10T01:40:12.310Z,98689.00
2018-11-10T01:42:42.030Z,98672.00
2018-11-10T01:45:13.912Z,98672.00
2018-11-10T01:47:43.749Z,98664.00
2018-11-10T01:50:12.905Z,98663.00
2018-11-10T01:52:42.332Z,98655.00
2018-11-10T01:55:12.089Z,98654.00
2018-11-10T01:57:42.307Z,98656.00
2018-11-10T02:00:15.287Z,98648.00
2018-11-10T02:02:45.124Z,98651.00
2018-11-10T02:05:14.483Z,98646.00
2018-11-10T02:07:43.564Z,98640.00
2018-11-10T02:10:13.111Z,98639.00
2018-11-10T02:12:42.918Z,98635.00
2018-11-10T02:15:15.881Z,98626.00
2018-11-10T02:17:45.220Z,98622.00
2018-11-10T02:20:15.108Z,98622.00
2018-11-10T02:22:44.756Z,98615.00
2018-11-10T02:25:14.038Z,98614.00
2018-11-10T02:27:43.262Z,98606.00
2018-11-10T02:30:13.643Z,98611.00
2018-11-10T02:32:42.921Z,98608.00
2018-11-10T02:35:12.409Z,98603.00
2018-11-10T02:37:41.844Z,98599.00
2018-11-10T02:40:13.701Z,98600.00
2018-11-10T02:42:44.051Z,98591.00
2018-11-10T02:45:14.332Z,98588.00
2018-11-10T02:47:44.243Z,98593.00
2018-11-10T02:50:13.467Z,98585.00
2018-11-10T02:52:42.646Z,98589.00
2018-11-10T02:55:12.067Z,98580.00
2018-11-10T02:57:41.645Z,98583.00
2018-11-10T03:00:12.223Z,98579.00
2018-11-10T03:02:41.300Z,98579.00
2018-11-10T03:05:10.882Z,98579.00
2018-11-10T03:07:40.028Z,98584.00
2018-11-10T03:10:10.519Z,98581.00
2018-11-10T03:12:40.568Z,98578.00
2018-11-10T03:15:10.748Z,98578.00
2018-11-10T03:17:39.858Z,98577.00
2018-11-10T03:20:12.723Z,98571.00
2018-11-10T03:22:42.073Z,98565.00
2018-11-10T03:25:11.542Z,98560.00
2018-11-10T03:27:40.828Z,98544.00
2018-11-10T03:30:10.044Z,98543.00
2018-11-10T03:32:39.127Z,98539.00
2018-11-10T03:35:08.984Z,98540.00
2018-11-10T03:37:38.142Z,98532.00
2018-11-10T03:40:08.926Z,98533.00
2018-11-10T03:42:38.375Z,98521.00
2018-11-10T03:45:08.947Z,98529.00
2018-11-10T03:47:38.123Z,98532.00
2018-11-10T03:50:08.260Z,98523.00
2018-11-10T03:52:37.344Z,98526.00
2018-11-10T03:55:07.520Z,98522.00
2018-11-10T03:57:36.654Z,98509.00
2018-11-10T04:00:07.212Z,98498.00
2018-11-10T04:02:36.328Z,98494.00
2018-11-10T04:05:05.726Z,98489.00
2018-11-10T04:07:35.005Z,98488.00
2018-11-10T04:10:04.525Z,98488.00
2018-11-10T04:12:33.649Z,98496.00
2018-11-10T04:15:02.738Z,98507.00
2018-11-10T04:17:31.745Z,98497.00
2018-11-10T04:20:00.972Z,98492.00
2018-11-10T04:22:34.050Z,98495.00
2018-11-10T04:25:04.183Z,98494.00
2018-11-10T04:27:34.036Z,98495.00
2018-11-10T04:30:04.331Z,98486.00
2018-11-10T04:32:33.867Z,98490.00
2018-11-10T04:35:03.001Z,98491.00
2018-11-10T04:37:32.152Z,98482.00
2018-11-10T04:40:01.935Z,98485.00
2018-11-10T04:42:31.812Z,98478.00
2018-11-10T04:45:01.117Z,98477.00
2018-11-10T04:47:30.272Z,98476.00
2018-11-10T04:49:59.386Z,98468.00
2018-11-10T04:52:28.500Z,98462.00
2018-11-10T04:54:57.554Z,98465.00
2018-11-10T04:57:26.602Z,98462.00
2018-11-10T04:59:55.663Z,98469.00
2018-11-10T05:02:24.767Z,98459.00
2018-11-10T05:04:53.980Z,98460.00
2018-11-10T05:07:23.624Z,98454.00
2018-11-10T05:09:52.719Z,98461.00
2018-11-10T05:12:21.962Z,98466.00
2018-11-10T05:14:51.110Z,98451.00
2018-11-10T05:17:20.259Z,98453.00
2018-11-10T05:19:49.372Z,98455.00
2018-11-10T05:22:18.385Z,98456.00
2018-11-10T05:24:47.375Z,98459.00
2018-11-10T05:27:16.410Z,98456.00
2018-11-10T05:29:45.442Z,98463.00
2018-11-10T05:32:14.502Z,98465.00
2018-11-10T05:34:43.536Z,98473.00
2018-11-10T05:37:12.648Z,98470.00
2018-11-10T05:39:42.846Z,98465.00
2018-11-10T05:42:11.925Z,98473.00
2018-11-10T05:44:41.046Z,98460.00
2018-11-10T05:47:10.056Z,98464.00
2018-11-10T05:49:39.173Z,98464.00
2018-11-10T05:52:08.332Z,98464.00
2018-11-10T05:54:37.374Z,98469.00
2018-11-10T05:57:06.504Z,98464.00
2018-11-10T05:59:35.672Z,98461.00
2018-11-10T06:02:06.302Z,98464.00
2018-11-10T06:04:36.228Z,98449.00
2018-11-10T06:07:06.478Z,98453.00
2018-11-10T06:09:35.764Z,98458.00
2018-11-10T06:12:05.673Z,98446.00
2018-11-10T06:14:34.851Z,98448.00
2018-11-10T06:17:04.022Z,98436.00
2018-11-10T06:19:33.217Z,98441.00
2018-11-10T06:22:02.424Z,98438.00
2018-11-10T06:24:31.518Z,98449.00
2018-11-10T06:27:00.774Z,98452.00
2018-11-10T06:29:29.897Z,98448.00
2018-11-10T06:31:59.104Z,98448.00
2018-11-10T06:34:28.397Z,98452.00
2018-11-10T06:36:57.624Z,98456.00
2018-11-10T06:39:26.667Z,98455.00
2018-11-10T06:41:55.752Z,98454.00
2018-11-10T06:44:24.825Z,98465.00
2018-11-10T06:46:54.006Z,98457.00
2018-11-10T06:49:24.149Z,98466.00
2018-11-10T06:51:54.066Z,98466.00
2018-11-10T06:54:23.141Z,98460.00
2018-11-10T06:56:52.607Z,98474.00
2018-11-10T06:59:21.685Z,98473.00
2018-11-10T07:01:50.821Z,98471.00
2018-11-10T07:04:19.950Z,98481.00
2018-11-10T07:06:49.233Z,98493.00
2018-11-10T07:09:20.384Z,98494.00
2018-11-10T07:11:49.988Z,98498.00
2018-11-10T07:14:19.347Z,98509.00
2018-11-10T07:16:48.513Z,98505.00
2018-11-10T07:19:24.172Z,98511.00
2018-11-10T07:21:53.400Z,98497.00
2018-11-10T07:24:22.499Z,98509.00
2018-11-10T07:26:51.803Z,98505.00
2018-11-10T07:29:20.933Z,98512.00
2018-11-10T07:31:50.172Z,98516.00
2018-11-10T07:34:19.586Z,98509.00
2018-11-10T07:36:48.703Z,98501.00
2018-11-10T07:39:18.109Z,98507.00
2018-11-10T07:41:47.300Z,98504.00
2018-11-10T07:44:16.471Z,98498.00
2018-11-10T07:46:46.088Z,98505.00
2018-11-10T07:49:15.427Z,98509.00
2018-11-10T07:51:45.349Z,98507.00
2018-11-10T07:54:14.878Z,98506.00
2018-11-10T07:56:44.747Z,98503.00
2018-11-10T07:59:13.894Z,98507.00
2018-11-10T08:01:43.354Z,98496.00
2018-11-10T08:04:15.121Z,98507.00
2018-11-10T08:06:44.325Z,98512.00
2018-11-10T08:09:13.584Z,98511.00
2018-11-10T08:11:43.038Z,98498.00
2018-11-10T08:14:12.585Z,98509.00
2018-11-10T08:16:42.216Z,98528.00
2018-11-10T08:19:11.440Z,98532.00
2018-11-10T08:21:40.885Z,98545.00
2018-11-10T08:24:10.113Z,98541.00
2018-11-10T08:26:39.494Z,98532.00
2018-11-10T08:29:08.771Z,98531.00
2018-11-10T08:31:37.924Z,98541.00
2018-11-10T08:34:07.143Z,98551.00
2018-11-10T08:36:36.421Z,98547.00
2018-11-10T08:39:08.956Z,98553.00
2018-11-10T08:41:38.038Z,98545.00
2018-11-10T08:44:07.996Z,98543.00
2018-11-10T08:46:40.207Z,98542.00
2018-11-10T08:49:10.715Z,98554.00
2018-11-10T08:51:40.525Z,98540.00
2018-11-10T08:54:09.671Z,98555.00
2018-11-10T08:56:39.429Z,98546.00
2018-11-10T08:59:08.922Z,98546.00
2018-11-10T09:01:38.112Z,98538.00
2018-11-10T09:04:07.939Z,98538.00
2018-11-10T09:06:38.451Z,98546.00
2018-11-10T09:09:13.039Z,98540.00
2018-11-10T09:11:43.748Z,98539.00
2018-11-10T09:14:14.262Z,98537.00
2018-11-10T09:16:44.541Z,98539.00
2018-11-10T09:19:14.977Z,98550.00
2018-11-10T09:21:45.252Z,98543.00
2018-11-10T09:24:14.698Z,98554.00
2018-11-10T09:26:44.610Z,98559.00
2018-11-10T09:29:14.179Z,98559.00
2018-11-10T09:31:44.738Z,98558.00
2018-11-10T09:34:13.943Z,98559.00
2018-11-10T09:36:43.714Z,98564.00
2018-11-10T09:39:13.385Z,98542.00
2018-11-10T09:41:42.853Z,98564.00
2018-11-10T09:44:12.285Z,98550.00
2018-11-10T09:46:41.697Z,98560.00
2018-11-10T09:49:11.665Z,98557.00
2018-11-10T09:51:41.060Z,98567.00
2018-11-10T09:54:10.975Z,98564.00
2018-11-10T09:56:40.249Z,98565.00
2018-11-10T09:59:09.620Z,98560.00
2018-11-10T10:01:39.229Z,98555.00
2018-11-10T10:04:10.338Z,98558.00
2018-11-10T10:06:39.920Z,98565.00
2018-11-10T10:09:11.037Z,98569.00
2018-11-10T10:11:41.233Z,98559.00
2018-11-10T10:14:11.625Z,98565.00
2018-11-10T10:16:41.025Z,98558.00
2018-11-10T10:19:10.960Z,98567.00
2018-11-10T10:21:40.192Z,98562.00
2018-11-10T10:24:09.556Z,98551.00
2018-11-10T10:26:38.956Z,98548.00
2018-11-10T10:29:08.463Z,98547.00
2018-11-10T10:31:37.944Z,98551.00
2018-11-10T10:34:07.290Z,98550.00
2018-11-10T10:36:36.694Z,98547.00
2018-11-10T10:39:08.619Z,98553.00
2018-11-10T10:41:39.103Z,98546.00
2018-11-10T10:44:09.431Z,98548.00
2018-11-10T10:46:38.823Z,98553.00
2018-11-10T10:49:08.178Z,98549.00
2018-11-10T10:51:37.381Z,98552.00
2018-11-10T10:54:06.781Z,98555.00
2018-11-10T10:56:35.984Z,98550.00
2018-11-10T10:59:06.318Z,98551.00
2018-11-10T11:01:40.644Z,98551.00
2018-11-10T11:04:14.825Z,98545.00
2018-11-10T11:06:43.936Z,98549.00
2018-11-10T11:09:13.131Z,98546.00
2018-11-10T11:11:42.462Z,98543.00
2018-11-10T11:14:11.569Z,98545.00
2018-11-10T11:16:40.747Z,98530.00
2018-11-10T11:19:10.816Z,98535.00
2018-11-10T11:21:39.904Z,98536.00
2018-11-10T11:24:08.957Z,98532.00
2018-11-10T11:26:38.053Z,98530.00
2018-11-10T11:29:07.216Z,98521.00
2018-11-10T11:31:36.928Z,98522.00
2018-11-10T11:34:06.292Z,98524.00
2018-11-10T11:36:36.638Z,98522.00
2018-11-10T11:39:10.151Z,98519.00
2018-11-10T11:41:55.303Z,98516.00
2018-11-10T11:44:25.325Z,98509.00
2018-11-10T11:46:54.645Z,98505.00
2018-11-10T11:49:24.311Z,98498.00
2018-11-10T11:51:53.519Z,98497.00
2018-11-10T11:54:22.761Z,98498.00
2018-11-10T11:56:52.261Z,98494.00
2018-11-10T11:59:21.592Z,98486.00
2018-11-10T12:01:50.655Z,98485.00
2018-11-10T12:04:19.794Z,98484.00
2018-11-10T12:06:49.408Z,98490.00
2018-11-10T12:09:18.515Z,98488.00
2018-11-10T12:11:47.527Z,98490.00
2018-11-10T12:14:16.536Z,98489.00
2018-11-10T12:16:46.321Z,98490.00
2018-11-10T12:19:15.340Z,98484.00
2018-11-10T12:21:44.476Z,98482.00
2018-11-10T12:24:13.472Z,98480.00
2018-11-10T12:26:42.509Z,98481.00
2018-11-10T12:29:11.512Z,98474.00
2018-11-10T12:31:40.625Z,98477.00
2018-11-10T12:34:09.676Z,98468.00
2018-11-10T12:36:38.765Z,98477.00
2018-11-10T12:39:09.008Z,98469.00
2018-11-10T12:41:38.159Z,98463.00
2018-11-10T12:44:07.492Z,98466.00
2018-11-10T12:46:36.542Z,98470.00
2018-11-10T12:49:05.986Z,98466.00
2018-11-10T12:51:34.948Z,98467.00
2018-11-10T12:54:04.885Z,98456.00
2018-11-10T12:56:33.923Z,98459.00
2018-11-10T12:59:03.335Z,98452.00
2018-11-10T13:01:32.371Z,98451.00
2018-11-10T13:04:01.896Z,98454.00
2018-11-10T13:06:30.950Z,98453.00
2018-11-10T13:08:59.951Z,98452.00
2018-11-10T13:11:29.133Z,98452.00
2018-11-10T13:13:58.106Z,98446.00
2018-11-10T13:16:27.206Z,98455.00
2018-11-10T13:18:56.128Z,98448.00
2018-11-10T13:21:25.173Z,98452.00
2018-11-10T13:23:54.517Z,98444.00
2018-11-10T13:26:23.560Z,98435.00
2018-11-10T13:28:52.715Z,98432.00
2018-11-10T13:31:21.972Z,98429.00
2018-11-10T13:33:50.915Z,98430.00
2018-11-10T13:36:19.976Z,98425.00
2018-11-10T13:38:49.033Z,98420.00
2018-11-10T13:41:18.209Z,98409.00
2018-11-10T13:43:47.368Z,98411.00
2018-11-10T13:46:16.297Z,98403.00
2018-11-10T13:48:52.075Z,98400.00
2018-11-10T13:51:21.279Z,98398.00
2018-11-10T13:53:50.073Z,98398.00
2018-11-10T13:56:19.164Z,98404.00
2018-11-10T13:58:48.159Z,98405.00
2018-11-10T14:01:17.690Z,98403.00
2018-11-10T14:03:46.683Z,98405.00
2018-11-10T14:06:15.705Z,98395.00
2018-11-10T14:08:44.759Z,98398.00
2018-11-10T14:16:11.493Z,98396.00
2018-11-10T14:18:40.717Z,98400.00
2018-11-10T14:21:09.875Z,98398.00
2018-11-10T14:23:38.912Z,98401.00
2018-11-10T14:26:07.999Z,98394.00
2018-11-10T14:28:36.986Z,98403.00
2018-11-10T14:31:06.206Z,98394.00
2018-11-10T14:33:35.369Z,98386.00
2018-11-10T14:36:04.503Z,98403.00
2018-11-10T14:38:33.712Z,98394.00
2018-11-10T14:41:02.817Z,98391.00
2018-11-10T14:43:32.049Z,98391.00
2018-11-10T14:46:01.076Z,98402.00
2018-11-10T14:48:30.108Z,98401.00
2018-11-10T14:50:59.209Z,98407.00
2018-11-10T14:53:28.197Z,98403.00
2018-11-10T14:55:57.473Z,98403.00
2018-11-10T14:58:26.530Z,98400.00
2018-11-10T15:00:55.564Z,98410.00
2018-11-10T15:03:24.605Z,98412.00
2018-11-10T15:05:53.643Z,98415.00
2018-11-10T15:08:22.680Z,98421.00
2018-11-10T15:10:51.688Z,98422.00
2018-11-10T15:13:20.813Z,98432.00
2018-11-10T15:15:49.827Z,98437.00
2018-11-10T15:18:18.939Z,98435.00
2018-11-10T15:20:47.860Z,98439.00
2018-11-10T15:23:16.868Z,98437.00
2018-11-10T15:25:45.952Z,98438.00
2018-11-10T15:28:15.101Z,98428.00
2018-11-10T15:30:44.208Z,98431.00
2018-11-10T15:33:13.375Z,98438.00
2018-11-10T15:35:42.456Z,98442.00
2018-11-10T15:38:11.558Z,98438.00
2018-11-10T15:40:40.723Z,98439.00
2018-11-10T15:43:10.336Z,98443.00
2018-11-10T15:45:39.461Z,98453.00
2018-11-10T15:48:08.584Z,98454.00
2018-11-10T15:50:37.665Z,98451.00
2018-11-10T15:53:07.423Z,98451.00
2018-11-10T15:55:36.463Z,98459.00
2018-11-10T15:58:05.676Z,98461.00
2018-11-10T16:00:34.724Z,98456.00
2018-11-10T16:03:03.772Z,98455.00
2018-11-10T16:05:32.859Z,98453.00
2018-11-10T16:08:02.077Z,98456.00
2018-11-10T16:10:32.652Z,98454.00
2018-11-10T16:13:01.784Z,98454.00
2018-11-10T16:15:30.912Z,98450.00
2018-11-10T16:17:59.966Z,98444.00
2018-11-10T16:20:29.146Z,98443.00
2018-11-10T16:22:58.254Z,98444.00
2018-11-10T16:25:28.057Z,98448.00
2018-11-10T16:27:57.876Z,98444.00
2018-11-10T16:30:26.992Z,98443.00
2018-11-10T16:32:56.196Z,98441.00
2018-11-10T16:35:25.384Z,98442.00
2018-11-10T16:37:54.601Z,98447.00
2018-11-10T16:40:23.648Z,98445.00
2018-11-10T16:42:52.707Z,98455.00
2018-11-10T16:45:22.073Z,98445.00
2018-11-10T16:47:51.556Z,98448.00
2018-11-10T16:50:20.797Z,98452.00
2018-11-10T16:52:50.049Z,98459.00
2018-11-10T16:55:19.283Z,98465.00
2018-11-10T16:57:48.436Z,98465.00
2018-11-10T17:00:18.839Z,98472.00
2018-11-10T17:02:48.028Z,98475.00
2018-11-10T17:05:17.168Z,98473.00
2018-11-10T17:07:46.404Z,98472.00
2018-11-10T17:10:16.764Z,98473.00
2018-11-10T17:12:45.972Z,98473.00
2018-11-10T17:15:15.172Z,98473.00
2018-11-10T17:17:44.373Z,98476.00
2018-11-10T17:20:15.867Z,98471.00
2018-11-10T17:22:45.217Z,98471.00
2018-11-10T17:25:15.012Z,98472.00
2018-11-10T17:27:44.445Z,98473.00
2018-11-10T17:30:15.525Z,98484.00
2018-11-10T17:32:44.774Z,98484.00
2018-11-10T17:35:14.105Z,98487.00
2018-11-10T17:37:43.314Z,98481.00
2018-11-10T17:40:13.226Z,98481.00
2018-11-10T17:42:42.283Z,98474.00
2018-11-10T17:45:13.684Z,98480.00
2018-11-10T17:47:43.096Z,98477.00
2018-11-10T17:50:13.374Z,98480.00
2018-11-10T17:52:42.503Z,98477.00
2018-11-10T17:55:13.132Z,98472.00
2018-11-10T17:57:42.890Z,98481.00
2018-11-10T18:00:12.048Z,98483.00
2018-11-10T18:02:41.140Z,98496.00
2018-11-10T18:05:12.582Z,98500.00
2018-11-10T18:07:42.489Z,98500.00
2018-11-10T18:10:13.769Z,98498.00
2018-11-10T18:12:43.672Z,98486.00
2018-11-10T18:15:13.773Z,98489.00
2018-11-10T18:17:43.359Z,98489.00
2018-11-10T18:20:13.850Z,98491.00
2018-11-10T18:22:43.377Z,98492.00
2018-11-10T18:25:12.604Z,98494.00
2018-11-10T18:27:41.905Z,98500.00
2018-11-10T18:30:12.774Z,98503.00
2018-11-10T18:32:41.997Z,98502.00
2018-11-10T18:35:11.555Z,98500.00
2018-11-10T18:37:40.974Z,98504.00
2018-11-10T18:40:10.128Z,98495.00
2018-11-10T18:42:39.191Z,98494.00
2018-11-10T18:45:09.750Z,98489.00
2018-11-10T18:47:39.323Z,98491.00
2018-11-10T18:50:11.194Z,98491.00
2018-11-10T18:52:41.429Z,98479.00
2018-11-10T18:55:10.869Z,98474.00
2018-11-10T18:57:40.172Z,98471.00
2018-11-10T19:00:11.928Z,98461.00
2018-11-10T19:02:41.726Z,98454.00
2018-11-10T19:05:12.287Z,98447.00
2018-11-10T19:07:41.410Z,98437.00
2018-11-10T19:10:12.647Z,98441.00
2018-11-10T19:12:42.090Z,98434.00
2018-11-10T19:15:16.227Z,98440.00
2018-11-10T19:17:45.303Z,98430.00
2018-11-10T19:20:14.906Z,98429.00
2018-11-10T19:22:43.948Z,98424.00
2018-11-10T19:25:13.852Z,98423.00
2018-11-10T19:27:42.975Z,98421.00
2018-11-10T19:30:19.732Z,98438.00
2018-11-10T19:32:49.648Z,98452.00
2018-11-10T19:35:19.443Z,98457.00
2018-11-10T19:37:48.660Z,98465.00
2018-11-10T19:40:17.720Z,98472.00
2018-11-10T19:42:47.176Z,98473.00
2018-11-10T19:45:16.514Z,98475.00
2018-11-10T19:47:46.226Z,98483.00
2018-11-10T19:50:16.641Z,98500.00
2018-11-10T19:52:45.905Z,98518.00
2018-11-10T19:55:16.339Z,98522.00
2018-11-10T19:57:45.368Z,98526.00
2018-11-10T20:00:18.393Z,98532.00
2018-11-10T20:02:47.817Z,98535.00
2018-11-10T20:05:17.240Z,98535.00
2018-11-10T20:07:46.310Z,98526.00
2018-11-10T20:10:15.632Z,98532.00
2018-11-10T20:12:45.049Z,98536.00
2018-11-10T20:15:14.952Z,98531.00
2018-11-10T20:17:45.406Z,98528.00
2018-11-10T20:20:15.959Z,98528.00
2018-11-10T20:22:45.169Z,98525.00
2018-11-10T20:25:16.359Z,98528.00
2018-11-10T20:27:45.370Z,98529.00
2018-11-10T20:30:16.016Z,98531.00
2018-11-10T20:32:45.105Z,98530.00
2018-11-10T20:35:14.475Z,98534.00
2018-11-10T20:37:44.525Z,98535.00
2018-11-10T20:40:14.547Z,98535.00
2018-11-10T20:42:43.671Z,98539.00
2018-11-10T20:45:15.393Z,98546.00
2018-11-10T20:47:44.440Z,98534.00
2018-11-10T20:50:14.109Z,98541.00
2018-11-10T20:52:43.187Z,98543.00
2018-11-10T20:55:12.859Z,98548.00
2018-11-10T20:57:41.886Z,98548.00
2018-11-10T21:00:13.641Z,98556.00
2018-11-10T21:02:43.388Z,98555.00
2018-11-10T21:05:12.932Z,98559.00
2018-11-10T21:07:42.013Z,98556.00
2018-11-10T21:10:13.317Z,98555.00
2018-11-10T21:12:43.112Z,98557.00
2018-11-10T21:15:12.592Z,98556.00
2018-11-10T21:17:41.780Z,98569.00
2018-11-10T21:20:11.793Z,98573.00
2018-11-10T21:22:40.873Z,98574.00
2018-11-10T21:25:12.059Z,98577.00
2018-11-10T21:27:41.756Z,98578.00
2018-11-10T21:30:12.541Z,98572.00
2018-11-10T21:32:41.628Z,98572.00
2018-11-10T21:35:10.744Z,98571.00
2018-11-10T21:37:39.749Z,98573.00
2018-11-10T21:40:13.231Z,98567.00
2018-11-10T21:42:42.457Z,98573.00
2018-11-10T21:45:12.577Z,98586.00
2018-11-10T21:47:41.625Z,98580.00
2018-11-10T21:50:12.660Z,98587.00
2018-11-10T21:52:42.583Z,98588.00
2018-11-10T21:55:13.468Z,98588.00
2018-11-10T21:57:43.077Z,98585.00
2018-11-10T22:00:14.116Z,98582.00
2018-11-10T22:02:43.677Z,98579.00
2018-11-10T22:05:12.958Z,98583.00
2018-11-10T22:07:42.165Z,98582.00
2018-11-10T22:10:13.463Z,98586.00
2018-11-10T22:12:43.016Z,98579.00
2018-11-10T22:15:14.714Z,98580.00
2018-11-10T22:17:44.548Z,98581.00
2018-11-10T22:20:14.892Z,98583.00
2018-11-10T22:22:44.125Z,98592.00
2018-11-10T22:25:13.686Z,98589.00
2018-11-10T22:27:44.026Z,98581.00
2018-11-10T22:30:16.393Z,98581.00
2018-11-10T22:32:46.100Z,98581.00
2018-11-10T22:35:15.187Z,98587.00
2018-11-10T22:37:44.449Z,98581.00
2018-11-10T22:40:14.812Z,98586.00
2018-11-10T22:42:44.288Z,98586.00
2018-11-10T22:45:15.104Z,98587.00
2018-11-10T22:47:44.291Z,98589.00
2018-11-10T22:50:16.303Z,98588.00
2018-11-10T22:52:45.496Z,98586.00
2018-11-10T22:55:14.677Z,98582.00
2018-11-10T22:57:43.773Z,98581.00
2018-11-10T23:00:19.722Z,98582.00
2018-11-10T23:02:50.267Z,98586.00
2018-11-10T23:05:20.034Z,98585.00
2018-11-10T23:07:49.140Z,98585.00
2018-11-10T23:10:18.548Z,98592.00
2018-11-10T23:12:48.552Z,98593.00
2018-11-10T23:15:17.640Z,98591.00
2018-11-10T23:17:46.650Z,98592.00
2018-11-10T23:20:17.020Z,98585.00
2018-11-10T23:22:46.074Z,98579.00
2018-11-10T23:25:16.377Z,98582.00
2018-11-10T23:27:45.481Z,98581.00
2018-11-10T23:30:17.443Z,98574.00
2018-11-10T23:32:46.452Z,98577.00
2018-11-10T23:35:15.629Z,98581.00
2018-11-10T23:37:44.686Z,98586.00
2018-11-10T23:40:14.900Z,98581.00
2018-11-10T23:42:44.228Z,98589.00
2018-11-10T23:45:14.065Z,98592.00
2018-11-10T23:47:43.119Z,98597.00
2018-11-10T23:50:13.747Z,98601.00
2018-11-10T23:52:42.788Z,98602.00
2018-11-10T23:55:13.632Z,98595.00
2018-11-10T23:57:42.707Z,98592.00
